Time;durP1;ratioP1;P1;durP2;ratioP2;P2;SDS_P1;SDS_P2;PMS_P1;PMS_P2;Temp;Humidity;BMP_temperature;BMP_pressure;BME280_temperature;BME280_humidity;BME280_pressure;Samples;Min_cycle;Max_cycle;Signal;HPM_P1;HPM_P2
2023/06/24 00:02:11;;;;;;;3.83;2.92;;;24.30;54.00;;;;;;4938077;29;20472;-75
2023/06/24 00:04:37;;;;;;;3.85;2.88;;;24.30;53.90;;;;;;4955188;28;20063;-76
2023/06/24 00:07:03;;;;;;;4.05;2.97;;;24.20;53.90;;;;;;4940162;28;20040;-76
2023/06/24 00:09:32;;;;;;;2.92;2.58;;;24.20;54.00;;;;;;4956219;28;20036;-76
2023/06/24 00:11:59;;;;;;;4.05;2.88;;;24.20;54.10;;;;;;4938979;29;20423;-76
2023/06/24 00:14:26;;;;;;;3.63;2.83;;;24.20;54.20;;;;;;4938847;28;20091;-76
2023/06/24 00:16:53;;;;;;;3.63;2.75;;;24.10;54.20;;;;;;4938653;29;20040;-78
2023/06/24 00:19:20;;;;;;;3.97;2.88;;;24.10;54.30;;;;;;4938129;29;20054;-77
2023/06/24 00:21:47;;;;;;;3.72;2.80;;;24.10;54.30;;;;;;4953475;28;20027;-77
2023/06/24 00:24:12;;;;;;;3.15;2.63;;;24.00;54.30;;;;;;4956403;28;20043;-77
2023/06/24 00:26:38;;;;;;;4.65;3.22;;;24.00;54.30;;;;;;4941046;29;20455;-77
2023/06/24 00:29:04;;;;;;;3.83;2.92;;;24.00;54.30;;;;;;4941523;29;20023;-77
2023/06/24 00:31:30;;;;;;;3.50;2.78;;;24.00;54.40;;;;;;4957291;29;20035;-76
2023/06/24 00:33:56;;;;;;;4.53;2.97;;;24.00;54.40;;;;;;4957129;29;20499;-76
2023/06/24 00:36:22;;;;;;;3.88;2.70;;;23.90;54.50;;;;;;4941901;29;20126;-76
2023/06/24 00:38:48;;;;;;;3.40;2.80;;;23.90;54.60;;;;;;4957249;29;20031;-76
2023/06/24 00:41:18;;;;;;;3.63;3.00;;;23.90;54.60;;;;;;4957454;29;20487;-76
2023/06/24 00:43:44;;;;;;;3.58;2.80;;;23.90;54.70;;;;;;4958052;28;20499;-75
2023/06/24 00:46:10;;;;;;;4.60;3.00;;;23.80;54.70;;;;;;4957017;29;20038;-76
2023/06/24 00:48:37;;;;;;;3.53;2.72;;;23.80;54.70;;;;;;4941909;29;20353;-76
2023/06/24 00:51:03;;;;;;;4.20;2.85;;;23.80;54.70;;;;;;4941133;29;20047;-77
2023/06/24 00:53:29;;;;;;;3.80;2.75;;;23.80;54.80;;;;;;4958533;28;20114;-77
2023/06/24 00:56:01;;;;;;;3.97;2.90;;;23.70;54.80;;;;;;4956436;29;20078;-78
2023/06/24 00:58:30;;;;;;;3.97;2.83;;;23.70;55.50;;;;;;4956773;29;20038;-77
2023/06/24 01:00:57;;;;;;;3.53;2.67;;;23.70;55.00;;;;;;4941008;29;20478;-77
2023/06/24 01:03:27;;;;;;;3.83;2.90;;;23.60;55.00;;;;;;4956612;28;20484;-76
2023/06/24 01:05:57;;;;;;;4.72;2.88;;;23.60;55.10;;;;;;4940710;29;20066;-75
2023/06/24 01:08:22;;;;;;;3.70;2.80;;;23.60;55.10;;;;;;4957016;29;20062;-76
2023/06/24 01:10:50;;;;;;;3.10;2.50;;;23.60;55.10;;;;;;4956477;29;20067;-76
2023/06/24 01:13:17;;;;;;;3.90;2.90;;;23.60;55.20;;;;;;4940871;28;20130;-76
2023/06/24 01:15:44;;;;;;;3.35;2.70;;;23.60;55.20;;;;;;4956635;29;20047;-77
2023/06/24 01:18:21;;;;;;;4.03;2.90;;;23.50;55.20;;;;;;4956261;28;20607;-76
2023/06/24 01:20:58;;;;;;;3.63;2.92;;;23.50;55.30;;;;;;4956680;29;20069;-77
2023/06/24 01:23:42;;;;;;;4.18;3.20;;;23.50;55.40;;;;;;4956406;29;20039;-76
2023/06/24 01:26:17;;;;;;;3.20;2.67;;;23.50;55.50;;;;;;4956956;29;20137;-77
2023/06/24 01:29:06;;;;;;;4.03;2.83;;;23.40;55.40;;;;;;4956385;29;20487;-76
2023/06/24 01:32:11;;;;;;;3.63;2.42;;;23.40;55.40;;;;;;4940399;29;20042;-75
2023/06/24 01:35:06;;;;;;;3.35;2.70;;;23.40;55.60;;;;;;4944521;28;20051;-76
2023/06/24 01:37:37;;;;;;;3.47;2.70;;;23.30;55.40;;;;;;4943673;29;20098;-75
2023/06/24 01:40:14;;;;;;;3.55;2.95;;;23.30;55.60;;;;;;4956080;29;20027;-75
2023/06/24 01:42:43;;;;;;;3.85;2.80;;;23.30;55.70;;;;;;4956917;29;20106;-77
2023/06/24 01:45:25;;;;;;;3.90;2.80;;;23.30;55.80;;;;;;4939560;29;20035;-77
2023/06/24 01:48:00;;;;;;;4.18;3.17;;;23.20;55.90;;;;;;4939656;29;20086;-77
2023/06/24 01:50:26;;;;;;;3.60;2.85;;;23.20;56.00;;;;;;4957291;29;20063;-76
2023/06/24 01:52:54;;;;;;;3.80;3.00;;;23.20;55.90;;;;;;4955940;29;20062;-76
2023/06/24 01:55:21;;;;;;;4.13;3.38;;;23.20;56.00;;;;;;4939942;29;20046;-75
2023/06/24 01:57:50;;;;;;;3.75;3.00;;;23.20;56.10;;;;;;4956280;29;20432;-76
2023/06/24 02:00:17;;;;;;;4.07;3.05;;;23.10;56.00;;;;;;4955211;29;20027;-75
2023/06/24 02:02:50;;;;;;;4.25;3.30;;;23.10;56.10;;;;;;4956535;29;20082;-76
2023/06/24 02:05:18;;;;;;;4.43;2.88;;;23.10;56.10;;;;;;4939906;29;20388;-77
2023/06/24 02:07:47;;;;;;;4.03;3.15;;;23.10;56.10;;;;;;4955606;28;20530;-76
2023/06/24 02:10:17;;;;;;;4.03;3.08;;;23.00;56.10;;;;;;4955169;29;20538;-76
2023/06/24 02:12:46;;;;;;;4.05;2.78;;;23.00;56.20;;;;;;4955486;28;20051;-76
2023/06/24 02:15:12;;;;;;;4.03;3.20;;;23.00;56.20;;;;;;4955865;29;20027;-76
2023/06/24 02:17:39;;;;;;;4.50;3.35;;;23.00;56.30;;;;;;4939099;28;20065;-76
2023/06/24 02:20:10;;;;;;;4.95;3.30;;;23.00;56.40;;;;;;4955444;29;20035;-76
2023/06/24 02:22:38;;;;;;;4.35;3.40;;;23.00;56.40;;;;;;4940126;29;20486;-76
2023/06/24 02:25:05;;;;;;;4.45;3.20;;;22.90;56.40;;;;;;4956032;28;20027;-77
2023/06/24 02:27:33;;;;;;;3.95;3.17;;;22.90;56.40;;;;;;4955929;29;20062;-76
2023/06/24 02:30:05;;;;;;;5.10;3.33;;;22.90;56.50;;;;;;4955763;29;20046;-76
2023/06/24 02:32:31;;;;;;;3.75;3.15;;;22.90;56.50;;;;;;4938917;29;21391;-75
2023/06/24 02:34:59;;;;;;;4.20;3.28;;;22.90;56.60;;;;;;4956053;28;20035;-75
2023/06/24 02:37:25;;;;;;;4.25;3.40;;;22.80;56.50;;;;;;4955120;29;20122;-75
2023/06/24 02:39:50;;;;;;;4.25;3.38;;;22.80;56.60;;;;;;4955152;29;20039;-76
2023/06/24 02:42:16;;;;;;;4.90;3.38;;;22.80;56.60;;;;;;4956224;28;20464;-73
2023/06/24 02:44:43;;;;;;;5.07;3.47;;;22.80;56.60;;;;;;4956330;28;20468;-72
2023/06/24 02:47:11;;;;;;;4.85;3.55;;;22.80;56.60;;;;;;4954563;28;20046;-74
2023/06/24 02:49:39;;;;;;;4.20;3.30;;;22.70;56.60;;;;;;4954358;29;20023;-72
2023/06/24 02:52:05;;;;;;;3.92;3.15;;;22.70;56.70;;;;;;4954706;28;20067;-72
2023/06/24 02:54:33;;;;;;;4.18;3.25;;;22.70;56.70;;;;;;4954550;29;20034;-72
2023/06/24 02:57:19;;;;;;;3.88;3.33;;;22.70;56.70;;;;;;4955691;29;20102;-73
2023/06/24 03:00:08;;;;;;;4.53;3.40;;;22.60;56.70;;;;;;4955428;29;20043;-73
2023/06/24 03:02:50;;;;;;;4.05;3.22;;;22.60;56.80;;;;;;4940980;28;20035;-72
2023/06/24 03:05:18;;;;;;;4.82;3.55;;;22.50;56.80;;;;;;4954505;29;20043;-72
2023/06/24 03:07:45;;;;;;;3.92;3.35;;;22.60;56.90;;;;;;4954389;28;20129;-72
2023/06/24 03:10:11;;;;;;;4.32;3.42;;;22.50;56.80;;;;;;4938891;29;20373;-72
2023/06/24 03:12:37;;;;;;;4.70;3.78;;;22.50;56.90;;;;;;4955653;28;20029;-72
2023/06/24 03:15:03;;;;;;;5.30;3.80;;;22.50;57.00;;;;;;4954257;29;20039;-72
2023/06/24 03:17:30;;;;;;;4.05;3.40;;;22.50;57.00;;;;;;4938732;29;20073;-72
2023/06/24 03:19:56;;;;;;;4.05;3.13;;;22.40;57.00;;;;;;4954445;29;20070;-72
2023/06/24 03:22:22;;;;;;;4.15;3.40;;;22.40;57.00;;;;;;4939031;29;20019;-72
2023/06/24 03:24:52;;;;;;;4.82;3.83;;;22.40;57.70;;;;;;4939290;28;20039;-73
2023/06/24 03:27:18;;;;;;;4.78;3.42;;;22.40;57.10;;;;;;4954398;29;20098;-72
2023/06/24 03:29:45;;;;;;;4.70;3.72;;;22.40;57.80;;;;;;4954111;29;20035;-73
2023/06/24 03:32:12;;;;;;;4.38;3.40;;;22.40;57.20;;;;;;4953777;29;20058;-73
2023/06/24 03:34:38;;;;;;;4.43;3.60;;;22.30;57.20;;;;;;4954053;28;20063;-72
2023/06/24 03:37:04;;;;;;;4.20;3.28;;;22.30;57.20;;;;;;4938429;28;20031;-72
2023/06/24 03:39:31;;;;;;;4.65;3.47;;;22.30;57.30;;;;;;4954074;28;20124;-72
2023/06/24 03:41:56;;;;;;;4.75;3.47;;;22.30;57.30;;;;;;4953999;29;20039;-73
2023/06/24 03:44:22;;;;;;;4.80;3.67;;;22.30;57.40;;;;;;4954303;29;20093;-72
2023/06/24 03:46:48;;;;;;;4.90;3.83;;;22.20;57.30;;;;;;4938760;29;20134;-73
2023/06/24 03:49:14;;;;;;;4.97;3.72;;;22.20;57.40;;;;;;4954102;29;20384;-73
2023/06/24 03:51:39;;;;;;;4.45;3.60;;;22.20;57.50;;;;;;4937953;29;20063;-72
2023/06/24 03:54:05;;;;;;;4.88;3.95;;;22.10;57.40;;;;;;4938189;28;20098;-73
2023/06/24 03:56:31;;;;;;;5.13;3.80;;;22.10;57.40;;;;;;4937870;29;20101;-73
2023/06/24 03:58:57;;;;;;;4.22;3.45;;;22.10;57.50;;;;;;4956105;28;20394;-72
2023/06/24 04:01:25;;;;;;;5.20;3.83;;;22.10;58.20;;;;;;4942095;29;20036;-72
2023/06/24 04:03:51;;;;;;;4.45;3.55;;;22.10;57.50;;;;;;4958498;29;20046;-72
2023/06/24 04:06:16;;;;;;;4.53;3.67;;;22.10;57.60;;;;;;4958350;29;20039;-72
2023/06/24 04:08:48;;;;;;;4.55;3.40;;;22.00;57.60;;;;;;4957449;29;20090;-73
2023/06/24 04:11:14;;;;;;;5.00;3.50;;;22.00;57.60;;;;;;4943124;29;20042;-74
2023/06/24 04:13:40;;;;;;;4.93;3.47;;;22.00;57.70;;;;;;4957265;29;20110;-73
2023/06/24 04:16:06;;;;;;;4.53;3.72;;;22.00;57.70;;;;;;4941349;28;20039;-73
2023/06/24 04:18:33;;;;;;;4.65;3.67;;;22.00;57.70;;;;;;4941819;28;20066;-73
2023/06/24 04:20:59;;;;;;;5.53;4.03;;;22.00;57.80;;;;;;4958171;28;20046;-73
2023/06/24 04:23:25;;;;;;;4.75;3.72;;;21.90;57.70;;;;;;4959154;28;20471;-73
2023/06/24 04:25:51;;;;;;;4.30;3.67;;;21.90;57.70;;;;;;4957597;29;20035;-73
2023/06/24 04:28:16;;;;;;;5.03;3.85;;;21.90;57.80;;;;;;4957232;29;20195;-73
2023/06/24 04:30:42;;;;;;;4.40;3.58;;;21.90;57.80;;;;;;4941538;29;20027;-73
2023/06/24 04:33:09;;;;;;;4.43;3.50;;;21.90;57.90;;;;;;4956764;29;20420;-73
2023/06/24 04:35:35;;;;;;;4.63;3.60;;;21.90;58.00;;;;;;4957120;29;20046;-73
2023/06/24 04:38:00;;;;;;;4.15;3.35;;;21.90;58.00;;;;;;4941192;29;20047;-73
2023/06/24 04:40:26;;;;;;;5.38;3.95;;;21.80;58.00;;;;;;4957377;29;20019;-73
2023/06/24 04:42:52;;;;;;;4.78;3.65;;;21.80;58.00;;;;;;4958351;28;20031;-73
2023/06/24 04:45:17;;;;;;;4.82;3.45;;;21.80;58.10;;;;;;4941369;29;20031;-73
2023/06/24 04:47:44;;;;;;;4.80;3.75;;;21.80;58.10;;;;;;4940898;29;20035;-73
2023/06/24 04:50:10;;;;;;;4.22;3.33;;;21.80;58.20;;;;;;4956773;29;20595;-73
2023/06/24 04:52:36;;;;;;;4.53;4.00;;;21.80;58.20;;;;;;4957246;29;20464;-73
2023/06/24 04:55:02;;;;;;;5.38;4.13;;;21.80;58.20;;;;;;4956655;29;20082;-74
2023/06/24 04:57:29;;;;;;;4.60;3.53;;;21.80;58.20;;;;;;4941551;28;20497;-74
2023/06/24 04:59:56;;;;;;;4.68;3.70;;;21.80;58.20;;;;;;4957674;28;20044;-72
2023/06/24 05:02:22;;;;;;;4.78;3.85;;;21.80;58.30;;;;;;4957704;29;20031;-74
2023/06/24 05:04:48;;;;;;;4.90;4.03;;;21.70;58.30;;;;;;4956917;29;20123;-73
2023/06/24 05:07:13;;;;;;;4.55;3.40;;;21.70;58.30;;;;;;4957820;29;20062;-73
2023/06/24 05:09:39;;;;;;;4.68;3.50;;;21.70;58.30;;;;;;4956863;28;20408;-73
2023/06/24 05:12:05;;;;;;;4.25;3.50;;;21.80;58.30;;;;;;4957188;29;20633;-73
2023/06/24 05:14:31;;;;;;;5.22;4.32;;;21.80;58.40;;;;;;4956743;29;20062;-73
2023/06/24 05:16:57;;;;;;;4.68;3.83;;;21.70;58.30;;;;;;4957333;28;20071;-73
2023/06/24 05:19:23;;;;;;;4.43;3.63;;;21.70;58.40;;;;;;4940296;28;20436;-74
2023/06/24 05:21:48;;;;;;;4.70;3.67;;;21.70;58.30;;;;;;4956453;29;20031;-73
2023/06/24 05:24:14;;;;;;;4.68;3.92;;;21.70;58.40;;;;;;4956088;29;20059;-73
2023/06/24 05:26:40;;;;;;;4.78;3.90;;;21.70;58.30;;;;;;4956507;29;20042;-73
2023/06/24 05:29:06;;;;;;;4.43;3.58;;;21.70;58.30;;;;;;4956002;29;20050;-73
2023/06/24 05:31:32;;;;;;;5.22;3.70;;;21.70;58.40;;;;;;4957112;28;20032;-73
2023/06/24 05:33:57;;;;;;;4.80;3.47;;;21.70;58.40;;;;;;4955786;29;20588;-73
2023/06/24 05:36:23;;;;;;;4.63;3.63;;;21.70;58.30;;;;;;4956694;28;20123;-74
2023/06/24 05:38:49;;;;;;;4.78;3.63;;;21.70;58.60;;;;;;4957044;28;20031;-73
2023/06/24 05:41:15;;;;;;;4.97;3.70;;;21.70;58.40;;;;;;4957586;28;20039;-74
2023/06/24 05:43:43;;;;;;;4.38;3.22;;;21.70;58.40;;;;;;4940157;29;20031;-73
2023/06/24 05:46:09;;;;;;;5.10;3.85;;;21.70;58.40;;;;;;4956658;29;20043;-71
2023/06/24 05:48:34;;;;;;;4.68;3.40;;;21.80;58.40;;;;;;4940406;29;20035;-71
2023/06/24 05:51:00;;;;;;;4.15;3.25;;;21.70;58.40;;;;;;4955877;29;20031;-71
2023/06/24 05:53:26;;;;;;;4.03;3.17;;;21.70;58.40;;;;;;4955714;29;20042;-73
2023/06/24 05:55:52;;;;;;;4.38;3.25;;;21.80;58.40;;;;;;4956853;28;20028;-72
2023/06/24 05:58:17;;;;;;;4.30;3.03;;;21.80;58.30;;;;;;4956778;28;20062;-74
2023/06/24 06:00:43;;;;;;;4.03;3.10;;;21.80;58.40;;;;;;4955452;29;20499;-72
2023/06/24 06:03:09;;;;;;;4.00;2.92;;;21.80;58.30;;;;;;4939929;29;20039;-72
2023/06/24 06:05:35;;;;;;;4.25;3.15;;;21.80;58.30;;;;;;4939615;29;20506;-72
2023/06/24 06:08:00;;;;;;;4.47;3.25;;;21.80;58.30;;;;;;4956434;28;20035;-72
2023/06/24 06:10:26;;;;;;;3.53;2.78;;;21.80;58.30;;;;;;4956417;28;20042;-72
2023/06/24 06:12:53;;;;;;;4.28;3.10;;;21.80;58.30;;;;;;4955973;29;20035;-72
2023/06/24 06:15:19;;;;;;;3.75;2.67;;;21.80;58.30;;;;;;4956758;28;20047;-72
2023/06/24 06:17:46;;;;;;;4.13;3.13;;;21.80;59.00;;;;;;4956798;28;20127;-72
2023/06/24 06:20:11;;;;;;;4.25;2.95;;;21.80;58.30;;;;;;4956440;28;20114;-72
2023/06/24 06:22:38;;;;;;;3.63;2.85;;;21.80;58.30;;;;;;4956016;28;20447;-72
2023/06/24 06:25:07;;;;;;;3.70;3.05;;;21.80;58.20;;;;;;4955100;29;20046;-71
2023/06/24 06:27:33;;;;;;;3.33;2.53;;;21.80;58.30;;;;;;4955416;29;20031;-71
2023/06/24 06:29:59;;;;;;;3.50;2.67;;;21.90;58.30;;;;;;4956331;28;20122;-71
2023/06/24 06:32:25;;;;;;;3.47;2.55;;;21.90;58.30;;;;;;4955889;28;20444;-71
2023/06/24 06:34:50;;;;;;;3.47;2.65;;;21.90;58.20;;;;;;4955972;28;20488;-72
2023/06/24 06:37:16;;;;;;;3.55;2.58;;;21.90;58.20;;;;;;4954703;29;20036;-71
2023/06/24 06:39:42;;;;;;;4.18;2.80;;;21.90;58.20;;;;;;4954705;29;20035;-71
2023/06/24 06:42:08;;;;;;;3.08;2.35;;;21.90;58.20;;;;;;4955181;29;20039;-71
2023/06/24 06:44:33;;;;;;;3.85;2.72;;;21.90;58.20;;;;;;4955549;29;20031;-71
2023/06/24 06:46:59;;;;;;;3.85;2.85;;;21.90;58.20;;;;;;4956272;28;20387;-71
2023/06/24 06:49:25;;;;;;;3.25;2.50;;;21.90;58.10;;;;;;4956592;28;20035;-71
2023/06/24 06:51:53;;;;;;;3.90;2.88;;;21.90;58.10;;;;;;4938601;29;20045;-71
2023/06/24 06:54:19;;;;;;;2.97;2.63;;;21.90;58.20;;;;;;4956243;29;20035;-71
2023/06/24 06:56:45;;;;;;;3.55;2.40;;;21.90;58.10;;;;;;4955851;28;20042;-71
2023/06/24 06:59:11;;;;;;;3.42;2.67;;;21.90;58.10;;;;;;4938576;29;20053;-71
2023/06/24 07:01:36;;;;;;;3.58;2.80;;;22.00;58.20;;;;;;4954449;29;20118;-71
2023/06/24 07:04:02;;;;;;;3.00;2.47;;;21.90;58.10;;;;;;4954919;29;20032;-71
2023/06/24 07:06:28;;;;;;;3.00;2.30;;;22.00;58.20;;;;;;4954556;28;20518;-71
2023/06/24 07:08:54;;;;;;;3.03;2.47;;;22.00;58.20;;;;;;4956037;28;20035;-71
2023/06/24 07:11:19;;;;;;;3.42;2.55;;;22.00;58.60;;;;;;4954533;29;20510;-71
2023/06/24 07:13:45;;;;;;;3.40;2.60;;;22.00;58.80;;;;;;4955282;29;20476;-73
2023/06/24 07:16:11;;;;;;;3.00;2.38;;;22.00;58.10;;;;;;4954456;29;20043;-72
2023/06/24 07:18:37;;;;;;;3.67;2.42;;;22.00;58.10;;;;;;4955317;29;20043;-71
2023/06/24 07:21:03;;;;;;;3.30;2.63;;;22.00;58.10;;;;;;4955821;29;20035;-71
2023/06/24 07:23:29;;;;;;;4.95;2.97;;;22.10;58.10;;;;;;4955155;29;20482;-71
2023/06/24 07:25:54;;;;;;;3.33;2.50;;;22.10;58.00;;;;;;4955793;29;20485;-71
2023/06/24 07:28:20;;;;;;;3.72;2.45;;;22.20;58.00;;;;;;4954633;29;20074;-71
2023/06/24 07:30:46;;;;;;;4.72;3.40;;;22.20;58.00;;;;;;4954280;29;20118;-71
2023/06/24 07:33:12;;;;;;;5.13;3.13;;;22.20;58.10;;;;;;4953065;28;20058;-72
2023/06/24 07:35:37;;;;;;;5.25;3.67;;;22.30;58.30;;;;;;4955645;28;20496;-72
2023/06/24 07:38:03;;;;;;;5.68;3.72;;;22.30;58.40;;;;;;4953954;29;20476;-72
2023/06/24 07:40:29;;;;;;;5.53;3.85;;;22.40;58.50;;;;;;4953790;29;20035;-71
2023/06/24 07:42:55;;;;;;;6.00;4.50;;;22.50;58.60;;;;;;4955069;29;20059;-72
2023/06/24 07:45:21;;;;;;;6.78;3.88;;;22.50;58.60;;;;;;4938320;28;20484;-71
2023/06/24 07:47:47;;;;;;;5.15;3.45;;;22.60;58.70;;;;;;4955295;28;20114;-71
2023/06/24 07:50:12;;;;;;;5.18;3.38;;;22.70;58.60;;;;;;4953820;29;20106;-72
2023/06/24 07:52:41;;;;;;;5.45;3.20;;;22.70;58.50;;;;;;4955184;28;20028;-72
2023/06/24 07:55:07;;;;;;;4.05;2.97;;;22.90;58.20;;;;;;4953844;29;20049;-71
2023/06/24 07:57:33;;;;;;;4.72;2.95;;;22.90;57.90;;;;;;4953954;29;20492;-74
2023/06/24 07:59:59;;;;;;;4.63;3.03;;;23.00;57.80;;;;;;4938111;28;20037;-71
2023/06/24 08:02:24;;;;;;;5.07;3.30;;;23.10;57.70;;;;;;4954634;29;20135;-71
2023/06/24 08:04:50;;;;;;;5.13;3.25;;;23.20;57.60;;;;;;4954873;28;20042;-71
2023/06/24 08:07:16;;;;;;;4.90;2.90;;;23.30;57.40;;;;;;4954242;29;20539;-71
2023/06/24 08:09:42;;;;;;;4.75;3.20;;;23.40;57.20;;;;;;4953712;29;20032;-71
2023/06/24 08:12:09;;;;;;;4.22;3.13;;;23.40;57.10;;;;;;4953875;29;20027;-74
2023/06/24 08:14:35;;;;;;;4.25;2.85;;;23.50;57.10;;;;;;4954648;28;20098;-76
2023/06/24 08:17:01;;;;;;;4.25;2.70;;;23.60;56.90;;;;;;4955480;28;20041;-74
2023/06/24 08:19:27;;;;;;;4.78;3.22;;;23.70;56.60;;;;;;4954887;28;20039;-74
2023/06/24 08:21:53;;;;;;;4.43;2.95;;;23.80;56.40;;;;;;4954062;29;20031;-74
2023/06/24 08:24:19;;;;;;;3.88;2.75;;;23.80;56.30;;;;;;4922152;29;20038;-74
2023/06/24 08:26:44;;;;;;;4.68;3.10;;;23.90;56.20;;;;;;4937866;29;20039;-75
2023/06/24 08:29:10;;;;;;;5.22;3.10;;;24.00;56.10;;;;;;4953753;29;20542;-75
2023/06/24 08:31:36;;;;;;;4.55;3.08;;;24.10;56.10;;;;;;4954806;28;20047;-75
2023/06/24 08:34:02;;;;;;;3.75;2.75;;;24.20;55.90;;;;;;4954662;28;20051;-75
2023/06/24 08:36:32;;;;;;;4.05;2.75;;;24.30;55.80;;;;;;4954544;28;20039;-74
2023/06/24 08:38:57;;;;;;;3.65;2.55;;;24.40;55.70;;;;;;4953668;28;20384;-71
2023/06/24 08:41:27;;;;;;;3.20;2.53;;;24.50;55.60;;;;;;4954935;28;20036;-71
2023/06/24 08:43:56;;;;;;;3.83;2.72;;;24.60;55.40;;;;;;4953748;28;20484;-72
2023/06/24 08:46:24;;;;;;;2.90;2.22;;;24.60;55.20;;;;;;4957948;28;20551;-71
2023/06/24 08:48:59;;;;;;;4.38;2.70;;;24.80;55.00;;;;;;4958909;28;20035;-71
2023/06/24 08:51:29;;;;;;;3.80;2.50;;;24.90;54.80;;;;;;4958758;29;20457;-71
2023/06/24 08:53:57;;;;;;;4.55;2.65;;;25.00;54.50;;;;;;4958230;28;20523;-71
2023/06/24 08:56:22;;;;;;;3.45;2.42;;;25.00;54.30;;;;;;4957817;28;20070;-71
2023/06/24 08:58:48;;;;;;;4.15;2.60;;;25.10;54.30;;;;;;4957655;29;20072;-72
2023/06/24 09:01:14;;;;;;;3.67;2.60;;;25.20;54.10;;;;;;4957587;28;20031;-71
2023/06/24 09:03:40;;;;;;;4.35;2.92;;;25.30;54.10;;;;;;4958208;28;20039;-71
2023/06/24 09:06:06;;;;;;;4.50;3.00;;;25.40;54.00;;;;;;4957706;28;20510;-71
2023/06/24 09:08:31;;;;;;;4.35;2.78;;;25.40;53.90;;;;;;4956739;29;20118;-71
2023/06/24 09:10:57;;;;;;;4.53;2.90;;;25.50;53.80;;;;;;4956138;29;20036;-72
2023/06/24 09:13:36;;;;;;;4.47;3.08;;;25.60;53.90;;;;;;4956617;29;20045;-72
2023/06/24 09:16:14;;;;;;;3.95;2.78;;;25.70;54.10;;;;;;4957715;28;20035;-72
2023/06/24 09:18:39;;;;;;;3.40;2.58;;;25.70;54.00;;;;;;4956518;29;20058;-71
2023/06/24 09:21:05;;;;;;;3.42;2.33;;;25.80;53.90;;;;;;4956112;29;20479;-72
2023/06/24 09:23:36;;;;;;;3.35;2.40;;;25.90;53.60;;;;;;4957905;28;20043;-72
2023/06/24 09:26:02;;;;;;;3.40;2.28;;;26.00;53.70;;;;;;4957408;28;20035;-71
2023/06/24 09:28:28;;;;;;;4.15;2.78;;;26.00;53.60;;;;;;4956968;29;20456;-71
2023/06/24 09:31:07;;;;;;;3.53;2.30;;;26.10;53.60;;;;;;4956022;29;20069;-71
2023/06/24 09:33:34;;;;;;;3.55;2.28;;;26.10;53.50;;;;;;4955935;28;20047;-72
2023/06/24 09:36:03;;;;;;;4.47;2.80;;;26.20;53.50;;;;;;4957718;28;20491;-71
2023/06/24 09:38:36;;;;;;;3.85;2.63;;;26.20;53.40;;;;;;4956081;29;20039;-71
2023/06/24 09:41:06;;;;;;;4.63;2.58;;;26.30;53.30;;;;;;4957293;28;20038;-71
2023/06/24 09:43:36;;;;;;;3.80;2.75;;;26.40;52.80;;;;;;4957541;28;20471;-71
2023/06/24 09:46:06;;;;;;;4.63;2.80;;;26.40;52.60;;;;;;4957184;28;20093;-72
2023/06/24 09:48:35;;;;;;;3.80;2.58;;;26.60;52.50;;;;;;4957129;28;20122;-71
2023/06/24 09:51:04;;;;;;;3.47;2.40;;;26.60;52.20;;;;;;4956855;28;20525;-72
2023/06/24 09:53:34;;;;;;;3.35;2.13;;;26.60;52.10;;;;;;4956763;28;20023;-71
2023/06/24 09:56:02;;;;;;;3.40;2.25;;;26.70;51.90;;;;;;4956250;28;20031;-71
2023/06/24 09:58:36;;;;;;;3.58;2.38;;;26.80;51.90;;;;;;4957001;29;20039;-72
2023/06/24 10:01:04;;;;;;;3.08;2.30;;;26.80;51.70;;;;;;4956987;28;20032;-71
2023/06/24 10:03:33;;;;;;;3.88;2.53;;;26.90;51.60;;;;;;4955705;29;20455;-71
2023/06/24 10:06:01;;;;;;;3.58;2.63;;;26.90;51.30;;;;;;4955355;29;20027;-71
2023/06/24 10:08:28;;;;;;;4.60;2.90;;;27.00;51.20;;;;;;4954842;28;20083;-71
2023/06/24 10:10:54;;;;;;;3.25;2.20;;;27.10;50.90;;;;;;4956863;28;20094;-71
2023/06/24 10:13:20;;;;;;;3.83;2.55;;;27.10;50.70;;;;;;4955943;28;20035;-72
2023/06/24 10:15:46;;;;;;;3.67;2.70;;;27.20;50.60;;;;;;4955165;29;20187;-71
2023/06/24 10:18:30;;;;;;;3.10;2.28;;;27.30;50.20;;;;;;4954762;28;20063;-71
2023/06/24 10:20:57;;;;;;;2.90;2.00;;;27.40;50.10;;;;;;4954817;29;20063;-71
2023/06/24 10:23:23;;;;;;;3.17;2.30;;;27.50;49.90;;;;;;4956112;28;20038;-71
2023/06/24 10:25:48;;;;;;;3.25;2.22;;;27.50;49.70;;;;;;4939181;28;20047;-72
2023/06/24 10:28:14;;;;;;;3.78;2.63;;;27.60;49.50;;;;;;4940048;28;20035;-72
2023/06/24 10:30:55;;;;;;;3.05;2.45;;;27.70;49.40;;;;;;4955238;29;20511;-72
2023/06/24 10:33:20;;;;;;;3.00;2.00;;;27.80;49.30;;;;;;4956037;28;20059;-70
2023/06/24 10:35:46;;;;;;;2.63;2.13;;;27.90;49.30;;;;;;4954822;29;20043;-72
2023/06/24 10:38:12;;;;;;;3.15;2.15;;;28.00;49.40;;;;;;4956049;28;20039;-71
2023/06/24 10:40:39;;;;;;;3.05;2.30;;;28.00;49.30;;;;;;4955094;29;20367;-71
2023/06/24 10:43:26;;;;;;;3.35;2.45;;;28.10;49.20;;;;;;4956166;28;20039;-71
2023/06/24 10:45:54;;;;;;;5.63;2.30;;;28.10;49.10;;;;;;4954679;29;20071;-74
2023/06/24 10:48:21;;;;;;;3.22;2.00;;;28.20;48.90;;;;;;4955631;28;20515;-76
2023/06/24 10:50:49;;;;;;;3.70;2.42;;;28.30;48.90;;;;;;4954600;29;20027;-72
2023/06/24 10:53:15;;;;;;;2.83;2.05;;;28.40;49.00;;;;;;4955738;28;20062;-71
2023/06/24 10:55:43;;;;;;;2.47;1.98;;;28.40;48.90;;;;;;4956629;28;20039;-72
2023/06/24 10:58:15;;;;;;;3.63;2.42;;;28.50;48.70;;;;;;4956079;28;20070;-71
2023/06/24 11:00:41;;;;;;;3.35;2.50;;;28.50;48.50;;;;;;4955664;28;20031;-71
2023/06/24 11:03:11;;;;;;;4.45;2.95;;;28.60;48.50;;;;;;4954824;29;20031;-71
2023/06/24 11:05:45;;;;;;;4.07;2.80;;;28.60;48.50;;;;;;4955529;28;20101;-71
2023/06/24 11:08:10;;;;;;;3.15;2.50;;;28.70;48.60;;;;;;4955394;28;20080;-72
2023/06/24 11:10:47;;;;;;;3.65;2.83;;;28.70;48.40;;;;;;4954480;29;20498;-70
2023/06/24 11:13:13;;;;;;;3.28;2.38;;;28.70;48.00;;;;;;4954446;28;20035;-70
2023/06/24 11:15:40;;;;;;;5.00;2.90;;;28.80;48.10;;;;;;4954292;29;20531;-70
2023/06/24 11:18:09;;;;;;;4.60;2.80;;;28.80;48.20;;;;;;4954589;29;20167;-70
2023/06/24 11:20:37;;;;;;;3.38;2.45;;;28.80;48.30;;;;;;4955554;28;20043;-71
2023/06/24 11:23:05;;;;;;;3.92;2.90;;;28.80;48.40;;;;;;4955339;28;20117;-71
2023/06/24 11:25:31;;;;;;;3.80;2.67;;;28.80;48.40;;;;;;4955469;28;20035;-70
2023/06/24 11:27:57;;;;;;;5.13;3.28;;;28.80;48.10;;;;;;4954574;29;20039;-71
2023/06/24 11:30:23;;;;;;;3.95;2.92;;;28.80;48.00;;;;;;4954038;29;20519;-70
2023/06/24 11:32:49;;;;;;;4.35;3.00;;;28.80;47.90;;;;;;4954651;29;20034;-71
2023/06/24 11:35:15;;;;;;;4.05;3.00;;;28.80;48.10;;;;;;4954255;29;20055;-74
2023/06/24 11:37:46;;;;;;;4.05;2.80;;;28.90;48.10;;;;;;4954092;29;20037;-74
2023/06/24 11:40:13;;;;;;;4.10;2.72;;;28.90;48.30;;;;;;4955187;28;20079;-73
2023/06/24 11:42:40;;;;;;;4.57;3.15;;;28.90;48.50;;;;;;4955643;28;20027;-73
2023/06/24 11:45:08;;;;;;;4.80;3.03;;;28.90;48.50;;;;;;4955541;28;20450;-72
2023/06/24 11:47:35;;;;;;;3.72;2.55;;;28.90;48.50;;;;;;4954086;28;20051;-72
2023/06/24 11:50:02;;;;;;;4.80;2.95;;;28.90;48.50;;;;;;4938027;29;20035;-72
2023/06/24 11:52:40;;;;;;;3.88;2.58;;;28.90;48.40;;;;;;4955280;28;20035;-73
2023/06/24 11:55:16;;;;;;;3.50;2.60;;;29.00;48.50;;;;;;4954980;28;20035;-73
2023/06/24 11:57:55;;;;;;;4.28;2.40;;;29.00;48.30;;;;;;4955452;28;20086;-73
2023/06/24 12:00:23;;;;;;;3.45;2.47;;;28.90;48.20;;;;;;4955512;28;20452;-73
2023/06/24 12:02:51;;;;;;;3.65;2.30;;;28.90;48.30;;;;;;4954518;29;20063;-73
2023/06/24 12:05:25;;;;;;;3.83;2.95;;;29.00;48.60;;;;;;4938006;28;20098;-73
2023/06/24 12:07:53;;;;;;;3.58;2.38;;;29.00;48.70;;;;;;4954979;29;20063;-73
2023/06/24 12:10:19;;;;;;;5.18;2.65;;;29.00;48.70;;;;;;4954969;28;20118;-73
2023/06/24 12:12:45;;;;;;;3.53;2.45;;;29.00;48.70;;;;;;4938805;28;20143;-73
2023/06/24 12:15:10;;;;;;;3.45;2.40;;;29.00;48.80;;;;;;4954817;28;20033;-72
2023/06/24 12:17:36;;;;;;;3.65;2.55;;;29.00;48.80;;;;;;4954835;28;20043;-73
2023/06/24 12:20:02;;;;;;;3.95;2.80;;;29.00;48.80;;;;;;4957291;28;20550;-73
2023/06/24 12:22:27;;;;;;;3.25;2.60;;;29.00;48.60;;;;;;4958504;28;20118;-73
2023/06/24 12:24:53;;;;;;;4.05;2.78;;;29.00;48.40;;;;;;4957386;29;20086;-73
2023/06/24 12:27:19;;;;;;;4.15;2.53;;;29.00;48.20;;;;;;4957235;29;20032;-72
2023/06/24 12:29:45;;;;;;;4.05;2.47;;;29.00;48.30;;;;;;4957329;29;20388;-73
2023/06/24 12:32:10;;;;;;;3.38;2.67;;;29.00;48.20;;;;;;4958345;28;20023;-73
2023/06/24 12:34:36;;;;;;;4.22;2.67;;;29.00;48.10;;;;;;4958089;28;20078;-73
2023/06/24 12:37:02;;;;;;;5.00;2.60;;;29.00;48.10;;;;;;4958694;28;20074;-74
2023/06/24 12:39:27;;;;;;;3.67;2.47;;;29.00;47.90;;;;;;4957136;29;20028;-74
2023/06/24 12:41:53;;;;;;;4.28;2.83;;;29.00;48.00;;;;;;4956848;29;20078;-73
2023/06/24 12:44:19;;;;;;;3.30;2.50;;;29.00;47.90;;;;;;4958395;28;20163;-73
2023/06/24 12:46:44;;;;;;;3.97;2.67;;;29.00;48.00;;;;;;4958477;28;20423;-72
2023/06/24 12:49:10;;;;;;;3.70;2.55;;;29.00;48.20;;;;;;4956856;29;20039;-72
2023/06/24 12:51:36;;;;;;;3.80;2.65;;;29.00;48.20;;;;;;4956683;29;20122;-72